sensor_id;sensor_type;location;lat;lon;timestamp;P1;durP1;ratioP1;P2;durP2;ratioP2
16075;SDS011;8142;48.242;11.644;2022-10-31T00:01:36;10.70;;;5.33;;
16075;SDS011;8142;48.242;11.644;2022-10-31T00:04:03;9.37;;;5.07;;
16075;SDS011;8142;48.242;11.644;2022-10-31T00:06:30;7.53;;;4.50;;
16075;SDS011;8142;48.242;11.644;2022-10-31T00:08:57;9.50;;;5.27;;
16075;SDS011;8142;48.242;11.644;2022-10-31T00:11:27;10.07;;;5.37;;
16075;SDS011;8142;48.242;11.644;2022-10-31T00:13:53;11.20;;;6.07;;
16075;SDS011;8142;48.242;11.644;2022-10-31T00:16:21;9.43;;;5.83;;
16075;SDS011;8142;48.242;11.644;2022-10-31T00:18:52;12.53;;;6.17;;
16075;SDS011;8142;48.242;11.644;2022-10-31T00:21:20;12.87;;;6.30;;
16075;SDS011;8142;48.242;11.644;2022-10-31T00:23:46;12.97;;;6.97;;
16075;SDS011;8142;48.242;11.644;2022-10-31T00:26:12;12.47;;;6.27;;
16075;SDS011;8142;48.242;11.644;2022-10-31T00:28:38;10.67;;;6.50;;
16075;SDS011;8142;48.242;11.644;2022-10-31T00:31:04;15.40;;;6.77;;
16075;SDS011;8142;48.242;11.644;2022-10-31T00:33:33;12.53;;;6.23;;
16075;SDS011;8142;48.242;11.644;2022-10-31T00:36:00;13.40;;;6.30;;
16075;SDS011;8142;48.242;11.644;2022-10-31T00:38:26;9.83;;;6.53;;
16075;SDS011;8142;48.242;11.644;2022-10-31T00:40:52;11.50;;;6.30;;
16075;SDS011;8142;48.242;11.644;2022-10-31T00:43:18;10.13;;;6.10;;
16075;SDS011;8142;48.242;11.644;2022-10-31T00:45:44;12.87;;;6.60;;
16075;SDS011;8142;48.242;11.644;2022-10-31T00:48:09;12.00;;;6.80;;
16075;SDS011;8142;48.242;11.644;2022-10-31T00:50:35;13.10;;;6.60;;
16075;SDS011;8142;48.242;11.644;2022-10-31T00:53:02;12.73;;;6.33;;
16075;SDS011;8142;48.242;11.644;2022-10-31T00:55:28;11.63;;;6.47;;
16075;SDS011;8142;48.242;11.644;2022-10-31T00:57:54;13.57;;;6.77;;
16075;SDS011;8142;48.242;11.644;2022-10-31T01:00:20;15.60;;;7.07;;
16075;SDS011;8142;48.242;11.644;2022-10-31T01:02:46;11.10;;;7.03;;
16075;SDS011;8142;48.242;11.644;2022-10-31T01:05:12;13.93;;;7.07;;
16075;SDS011;8142;48.242;11.644;2022-10-31T01:07:38;11.63;;;6.70;;
16075;SDS011;8142;48.242;11.644;2022-10-31T01:10:05;13.10;;;6.83;;
16075;SDS011;8142;48.242;11.644;2022-10-31T01:12:35;15.00;;;7.77;;
16075;SDS011;8142;48.242;11.644;2022-10-31T01:15:06;13.07;;;6.90;;
16075;SDS011;8142;48.242;11.644;2022-10-31T01:17:33;15.23;;;7.10;;
16075;SDS011;8142;48.242;11.644;2022-10-31T01:19:59;11.27;;;7.23;;
16075;SDS011;8142;48.242;11.644;2022-10-31T01:22:25;14.07;;;7.00;;
16075;SDS011;8142;48.242;11.644;2022-10-31T01:24:51;11.73;;;6.83;;
16075;SDS011;8142;48.242;11.644;2022-10-31T01:27:17;14.93;;;7.33;;
16075;SDS011;8142;48.242;11.644;2022-10-31T01:29:42;13.33;;;6.97;;
16075;SDS011;8142;48.242;11.644;2022-10-31T01:32:08;14.87;;;7.00;;
16075;SDS011;8142;48.242;11.644;2022-10-31T01:34:34;11.60;;;7.23;;
16075;SDS011;8142;48.242;11.644;2022-10-31T01:37:00;15.57;;;7.60;;
16075;SDS011;8142;48.242;11.644;2022-10-31T01:39:26;13.93;;;8.07;;
16075;SDS011;8142;48.242;11.644;2022-10-31T01:41:52;14.70;;;7.77;;
16075;SDS011;8142;48.242;11.644;2022-10-31T01:46:46;14.97;;;8.20;;
16075;SDS011;8142;48.242;11.644;2022-10-31T01:52:01;15.10;;;7.67;;
16075;SDS011;8142;48.242;11.644;2022-10-31T01:54:37;14.00;;;6.87;;
16075;SDS011;8142;48.242;11.644;2022-10-31T01:57:06;14.80;;;7.40;;
16075;SDS011;8142;48.242;11.644;2022-10-31T01:59:36;12.97;;;7.67;;
16075;SDS011;8142;48.242;11.644;2022-10-31T02:02:08;13.03;;;7.33;;
16075;SDS011;8142;48.242;11.644;2022-10-31T02:04:34;12.50;;;6.73;;
16075;SDS011;8142;48.242;11.644;2022-10-31T02:07:02;14.93;;;7.23;;
16075;SDS011;8142;48.242;11.644;2022-10-31T02:09:31;13.07;;;7.13;;
16075;SDS011;8142;48.242;11.644;2022-10-31T02:11:59;10.90;;;7.30;;
16075;SDS011;8142;48.242;11.644;2022-10-31T02:14:26;10.93;;;7.17;;
16075;SDS011;8142;48.242;11.644;2022-10-31T02:16:54;13.57;;;7.53;;
16075;SDS011;8142;48.242;11.644;2022-10-31T02:19:54;14.20;;;7.50;;
16075;SDS011;8142;48.242;11.644;2022-10-31T02:25:07;13.17;;;7.17;;
16075;SDS011;8142;48.242;11.644;2022-10-31T02:33:56;11.60;;;7.27;;
16075;SDS011;8142;48.242;11.644;2022-10-31T02:36:28;12.40;;;7.33;;
16075;SDS011;8142;48.242;11.644;2022-10-31T02:39:18;15.03;;;7.40;;
16075;SDS011;8142;48.242;11.644;2022-10-31T02:41:50;10.63;;;6.37;;
16075;SDS011;8142;48.242;11.644;2022-10-31T02:47:02;8.90;;;6.00;;
16075;SDS011;8142;48.242;11.644;2022-10-31T02:52:21;9.63;;;5.43;;
16075;SDS011;8142;48.242;11.644;2022-10-31T02:54:51;11.37;;;5.87;;
16075;SDS011;8142;48.242;11.644;2022-10-31T02:57:19;10.23;;;5.20;;
16075;SDS011;8142;48.242;11.644;2022-10-31T02:59:52;9.43;;;5.23;;
16075;SDS011;8142;48.242;11.644;2022-10-31T03:08:12;10.47;;;5.67;;
16075;SDS011;8142;48.242;11.644;2022-10-31T03:11:02;9.73;;;5.93;;
16075;SDS011;8142;48.242;11.644;2022-10-31T03:16:07;9.97;;;6.20;;
16075;SDS011;8142;48.242;11.644;2022-10-31T03:18:37;11.73;;;6.20;;
16075;SDS011;8142;48.242;11.644;2022-10-31T03:21:20;11.00;;;5.80;;
16075;SDS011;8142;48.242;11.644;2022-10-31T03:24:16;9.97;;;6.40;;
16075;SDS011;8142;48.242;11.644;2022-10-31T03:26:46;10.93;;;5.83;;
16075;SDS011;8142;48.242;11.644;2022-10-31T03:29:17;12.40;;;6.20;;
16075;SDS011;8142;48.242;11.644;2022-10-31T03:31:49;9.50;;;5.97;;
16075;SDS011;8142;48.242;11.644;2022-10-31T03:34:26;9.87;;;6.87;;
16075;SDS011;8142;48.242;11.644;2022-10-31T03:36:55;9.93;;;6.27;;
16075;SDS011;8142;48.242;11.644;2022-10-31T03:39:22;8.60;;;5.97;;
16075;SDS011;8142;48.242;11.644;2022-10-31T03:41:52;10.70;;;5.77;;
16075;SDS011;8142;48.242;11.644;2022-10-31T03:44:25;10.60;;;5.30;;
16075;SDS011;8142;48.242;11.644;2022-10-31T03:46:54;10.13;;;5.90;;
16075;SDS011;8142;48.242;11.644;2022-10-31T03:49:20;9.37;;;5.70;;
16075;SDS011;8142;48.242;11.644;2022-10-31T03:51:48;10.80;;;5.80;;
16075;SDS011;8142;48.242;11.644;2022-10-31T03:59:32;10.57;;;5.63;;
16075;SDS011;8142;48.242;11.644;2022-10-31T04:02:08;9.23;;;5.27;;
16075;SDS011;8142;48.242;11.644;2022-10-31T04:04:38;10.83;;;5.83;;
16075;SDS011;8142;48.242;11.644;2022-10-31T04:07:04;10.00;;;5.77;;
16075;SDS011;8142;48.242;11.644;2022-10-31T04:09:32;9.37;;;6.07;;
16075;SDS011;8142;48.242;11.644;2022-10-31T04:12:01;12.30;;;6.50;;
16075;SDS011;8142;48.242;11.644;2022-10-31T04:14:31;10.43;;;5.60;;
16075;SDS011;8142;48.242;11.644;2022-10-31T04:16:58;9.00;;;5.70;;
16075;SDS011;8142;48.242;11.644;2022-10-31T04:19:26;10.93;;;6.03;;
16075;SDS011;8142;48.242;11.644;2022-10-31T04:21:52;13.70;;;6.27;;
16075;SDS011;8142;48.242;11.644;2022-10-31T04:24:18;10.67;;;6.33;;
16075;SDS011;8142;48.242;11.644;2022-10-31T04:26:44;12.40;;;6.40;;
16075;SDS011;8142;48.242;11.644;2022-10-31T04:29:10;14.47;;;6.77;;
16075;SDS011;8142;48.242;11.644;2022-10-31T04:31:35;13.93;;;6.70;;
16075;SDS011;8142;48.242;11.644;2022-10-31T04:34:01;10.03;;;6.13;;
16075;SDS011;8142;48.242;11.644;2022-10-31T04:36:27;10.00;;;6.00;;
16075;SDS011;8142;48.242;11.644;2022-10-31T04:38:53;9.73;;;6.00;;
16075;SDS011;8142;48.242;11.644;2022-10-31T04:41:19;12.27;;;6.30;;
16075;SDS011;8142;48.242;11.644;2022-10-31T04:43:45;11.37;;;6.47;;
16075;SDS011;8142;48.242;11.644;2022-10-31T04:46:10;13.03;;;6.63;;
16075;SDS011;8142;48.242;11.644;2022-10-31T04:48:36;12.50;;;6.60;;
16075;SDS011;8142;48.242;11.644;2022-10-31T04:51:02;11.77;;;6.30;;
16075;SDS011;8142;48.242;11.644;2022-10-31T04:53:28;11.83;;;6.53;;
16075;SDS011;8142;48.242;11.644;2022-10-31T04:55:54;13.53;;;7.03;;
16075;SDS011;8142;48.242;11.644;2022-10-31T04:58:22;17.63;;;7.77;;
16075;SDS011;8142;48.242;11.644;2022-10-31T05:00:51;13.33;;;7.43;;
16075;SDS011;8142;48.242;11.644;2022-10-31T05:03:17;14.47;;;7.37;;
16075;SDS011;8142;48.242;11.644;2022-10-31T05:05:43;13.20;;;7.87;;
16075;SDS011;8142;48.242;11.644;2022-10-31T05:08:09;13.77;;;7.10;;
16075;SDS011;8142;48.242;11.644;2022-10-31T05:10:35;16.33;;;8.30;;
16075;SDS011;8142;48.242;11.644;2022-10-31T05:13:02;11.93;;;7.30;;
16075;SDS011;8142;48.242;11.644;2022-10-31T05:15:29;14.93;;;7.70;;
16075;SDS011;8142;48.242;11.644;2022-10-31T05:17:55;11.03;;;7.30;;
16075;SDS011;8142;48.242;11.644;2022-10-31T05:20:23;13.70;;;7.43;;
16075;SDS011;8142;48.242;11.644;2022-10-31T05:22:52;14.53;;;7.53;;
16075;SDS011;8142;48.242;11.644;2022-10-31T05:25:20;11.30;;;7.10;;
16075;SDS011;8142;48.242;11.644;2022-10-31T05:27:47;12.67;;;7.03;;
16075;SDS011;8142;48.242;11.644;2022-10-31T05:30:16;11.80;;;7.00;;
16075;SDS011;8142;48.242;11.644;2022-10-31T05:32:45;14.87;;;6.87;;
16075;SDS011;8142;48.242;11.644;2022-10-31T05:35:13;14.20;;;7.37;;
16075;SDS011;8142;48.242;11.644;2022-10-31T05:37:43;10.67;;;7.20;;
16075;SDS011;8142;48.242;11.644;2022-10-31T05:40:10;13.93;;;7.53;;
16075;SDS011;8142;48.242;11.644;2022-10-31T05:42:38;15.23;;;7.50;;
16075;SDS011;8142;48.242;11.644;2022-10-31T05:45:06;16.00;;;7.47;;
16075;SDS011;8142;48.242;11.644;2022-10-31T05:47:33;14.03;;;7.23;;
16075;SDS011;8142;48.242;11.644;2022-10-31T05:49:58;12.70;;;6.97;;
16075;SDS011;8142;48.242;11.644;2022-10-31T05:52:24;20.27;;;7.40;;
16075;SDS011;8142;48.242;11.644;2022-10-31T05:54:50;11.13;;;6.63;;
16075;SDS011;8142;48.242;11.644;2022-10-31T05:57:16;14.57;;;6.77;;
16075;SDS011;8142;48.242;11.644;2022-10-31T05:59:42;11.00;;;6.33;;
16075;SDS011;8142;48.242;11.644;2022-10-31T06:02:08;14.57;;;6.53;;
16075;SDS011;8142;48.242;11.644;2022-10-31T06:04:33;12.90;;;6.87;;
16075;SDS011;8142;48.242;11.644;2022-10-31T06:06:59;13.77;;;6.80;;
16075;SDS011;8142;48.242;11.644;2022-10-31T06:09:25;14.40;;;6.60;;
16075;SDS011;8142;48.242;11.644;2022-10-31T06:11:51;11.60;;;6.40;;
16075;SDS011;8142;48.242;11.644;2022-10-31T06:14:17;12.40;;;7.00;;
16075;SDS011;8142;48.242;11.644;2022-10-31T06:16:42;12.60;;;7.00;;
16075;SDS011;8142;48.242;11.644;2022-10-31T06:19:08;12.57;;;6.73;;
16075;SDS011;8142;48.242;11.644;2022-10-31T06:21:34;11.50;;;6.97;;
16075;SDS011;8142;48.242;11.644;2022-10-31T06:24:00;8.73;;;6.27;;
16075;SDS011;8142;48.242;11.644;2022-10-31T06:26:26;11.03;;;6.57;;
16075;SDS011;8142;48.242;11.644;2022-10-31T06:28:52;12.97;;;6.37;;
16075;SDS011;8142;48.242;11.644;2022-10-31T06:31:17;13.03;;;6.60;;
16075;SDS011;8142;48.242;11.644;2022-10-31T06:33:43;14.53;;;6.60;;
16075;SDS011;8142;48.242;11.644;2022-10-31T06:36:09;11.13;;;6.20;;
16075;SDS011;8142;48.242;11.644;2022-10-31T06:38:35;12.07;;;5.93;;
16075;SDS011;8142;48.242;11.644;2022-10-31T06:41:02;12.40;;;6.30;;
16075;SDS011;8142;48.242;11.644;2022-10-31T06:43:29;13.57;;;6.23;;
16075;SDS011;8142;48.242;11.644;2022-10-31T06:45:55;12.27;;;6.87;;
16075;SDS011;8142;48.242;11.644;2022-10-31T06:48:21;14.50;;;7.07;;
16075;SDS011;8142;48.242;11.644;2022-10-31T06:50:47;11.50;;;7.10;;
16075;SDS011;8142;48.242;11.644;2022-10-31T06:53:13;11.80;;;6.40;;
16075;SDS011;8142;48.242;11.644;2022-10-31T06:55:42;11.57;;;5.77;;
16075;SDS011;8142;48.242;11.644;2022-10-31T06:58:08;10.80;;;6.00;;
16075;SDS011;8142;48.242;11.644;2022-10-31T07:00:35;10.67;;;6.00;;
16075;SDS011;8142;48.242;11.644;2022-10-31T07:03:05;9.20;;;5.60;;
16075;SDS011;8142;48.242;11.644;2022-10-31T07:05:34;9.90;;;6.37;;
16075;SDS011;8142;48.242;11.644;2022-10-31T07:08:01;10.80;;;6.20;;
16075;SDS011;8142;48.242;11.644;2022-10-31T07:10:30;11.10;;;5.83;;
16075;SDS011;8142;48.242;11.644;2022-10-31T07:12:58;10.17;;;6.60;;
16075;SDS011;8142;48.242;11.644;2022-10-31T07:15:26;11.23;;;6.70;;
16075;SDS011;8142;48.242;11.644;2022-10-31T07:18:01;10.97;;;6.17;;
16075;SDS011;8142;48.242;11.644;2022-10-31T07:20:29;11.47;;;6.60;;
16075;SDS011;8142;48.242;11.644;2022-10-31T07:22:55;14.17;;;6.70;;
16075;SDS011;8142;48.242;11.644;2022-10-31T07:25:21;11.97;;;6.20;;
16075;SDS011;8142;48.242;11.644;2022-10-31T07:27:47;12.13;;;6.50;;
16075;SDS011;8142;48.242;11.644;2022-10-31T07:30:13;14.57;;;6.47;;
16075;SDS011;8142;48.242;11.644;2022-10-31T07:32:41;10.93;;;6.50;;
16075;SDS011;8142;48.242;11.644;2022-10-31T07:35:09;14.13;;;7.33;;
16075;SDS011;8142;48.242;11.644;2022-10-31T07:37:37;11.43;;;7.33;;
16075;SDS011;8142;48.242;11.644;2022-10-31T07:40:04;12.67;;;6.80;;
16075;SDS011;8142;48.242;11.644;2022-10-31T07:42:38;15.80;;;7.30;;
16075;SDS011;8142;48.242;11.644;2022-10-31T07:45:06;11.80;;;7.00;;
16075;SDS011;8142;48.242;11.644;2022-10-31T07:50:30;10.90;;;6.17;;
16075;SDS011;8142;48.242;11.644;2022-10-31T07:53:14;10.47;;;6.30;;
16075;SDS011;8142;48.242;11.644;2022-10-31T07:55:49;9.30;;;5.73;;
16075;SDS011;8142;48.242;11.644;2022-10-31T07:58:16;14.30;;;5.90;;
16075;SDS011;8142;48.242;11.644;2022-10-31T08:00:43;12.13;;;5.63;;
16075;SDS011;8142;48.242;11.644;2022-10-31T08:03:10;13.37;;;6.53;;
16075;SDS011;8142;48.242;11.644;2022-10-31T08:05:38;10.37;;;5.97;;
16075;SDS011;8142;48.242;11.644;2022-10-31T08:08:06;12.23;;;6.20;;
16075;SDS011;8142;48.242;11.644;2022-10-31T08:10:32;15.70;;;7.00;;
16075;SDS011;8142;48.242;11.644;2022-10-31T08:13:09;12.90;;;6.80;;
16075;SDS011;8142;48.242;11.644;2022-10-31T08:15:36;13.03;;;6.33;;
16075;SDS011;8142;48.242;11.644;2022-10-31T08:18:05;12.53;;;6.37;;
16075;SDS011;8142;48.242;11.644;2022-10-31T08:20:32;13.00;;;6.67;;
16075;SDS011;8142;48.242;11.644;2022-10-31T08:22:59;12.50;;;6.50;;
16075;SDS011;8142;48.242;11.644;2022-10-31T08:25:26;11.60;;;6.63;;
16075;SDS011;8142;48.242;11.644;2022-10-31T08:27:54;13.60;;;6.90;;
16075;SDS011;8142;48.242;11.644;2022-10-31T08:30:21;14.87;;;6.67;;
16075;SDS011;8142;48.242;11.644;2022-10-31T08:32:59;10.60;;;6.67;;
16075;SDS011;8142;48.242;11.644;2022-10-31T08:35:34;16.03;;;6.93;;
16075;SDS011;8142;48.242;11.644;2022-10-31T08:38:00;13.60;;;6.97;;
16075;SDS011;8142;48.242;11.644;2022-10-31T08:40:27;16.63;;;7.40;;
16075;SDS011;8142;48.242;11.644;2022-10-31T08:42:58;15.00;;;7.37;;
16075;SDS011;8142;48.242;11.644;2022-10-31T08:45:25;17.97;;;7.23;;
16075;SDS011;8142;48.242;11.644;2022-10-31T08:47:52;15.47;;;7.80;;
16075;SDS011;8142;48.242;11.644;2022-10-31T08:50:21;15.50;;;8.10;;
16075;SDS011;8142;48.242;11.644;2022-10-31T08:52:47;15.27;;;7.50;;
16075;SDS011;8142;48.242;11.644;2022-10-31T08:55:13;11.47;;;7.00;;
16075;SDS011;8142;48.242;11.644;2022-10-31T08:57:38;13.10;;;6.80;;
16075;SDS011;8142;48.242;11.644;2022-10-31T09:00:05;14.53;;;7.27;;
16075;SDS011;8142;48.242;11.644;2022-10-31T09:02:31;14.30;;;7.93;;
16075;SDS011;8142;48.242;11.644;2022-10-31T09:04:57;15.17;;;6.83;;
16075;SDS011;8142;48.242;11.644;2022-10-31T09:07:23;14.60;;;7.23;;
16075;SDS011;8142;48.242;11.644;2022-10-31T09:09:49;15.83;;;7.47;;
16075;SDS011;8142;48.242;11.644;2022-10-31T09:12:15;14.47;;;8.33;;
16075;SDS011;8142;48.242;11.644;2022-10-31T09:14:40;17.30;;;7.30;;
16075;SDS011;8142;48.242;11.644;2022-10-31T09:17:06;15.10;;;8.00;;
16075;SDS011;8142;48.242;11.644;2022-10-31T09:19:32;15.33;;;7.90;;
16075;SDS011;8142;48.242;11.644;2022-10-31T09:21:58;16.03;;;7.73;;
16075;SDS011;8142;48.242;11.644;2022-10-31T09:24:24;15.10;;;7.80;;
16075;SDS011;8142;48.242;11.644;2022-10-31T09:26:58;15.47;;;7.80;;
16075;SDS011;8142;48.242;11.644;2022-10-31T09:29:40;12.80;;;7.37;;
16075;SDS011;8142;48.242;11.644;2022-10-31T09:32:06;14.10;;;7.50;;
16075;SDS011;8142;48.242;11.644;2022-10-31T09:34:32;17.67;;;8.03;;
16075;SDS011;8142;48.242;11.644;2022-10-31T09:36:58;12.30;;;6.80;;
16075;SDS011;8142;48.242;11.644;2022-10-31T09:39:24;12.33;;;7.03;;
16075;SDS011;8142;48.242;11.644;2022-10-31T09:44:38;15.93;;;6.80;;
16075;SDS011;8142;48.242;11.644;2022-10-31T09:52:38;12.70;;;5.30;;
16075;SDS011;8142;48.242;11.644;2022-10-31T09:55:20;11.97;;;5.50;;
16075;SDS011;8142;48.242;11.644;2022-10-31T09:57:53;13.30;;;5.30;;
16075;SDS011;8142;48.242;11.644;2022-10-31T10:00:21;19.97;;;5.63;;
16075;SDS011;8142;48.242;11.644;2022-10-31T10:08:30;12.30;;;4.83;;
16075;SDS011;8142;48.242;11.644;2022-10-31T10:11:05;11.40;;;4.97;;
16075;SDS011;8142;48.242;11.644;2022-10-31T10:16:55;13.00;;;5.53;;
16075;SDS011;8142;48.242;11.644;2022-10-31T10:27:25;12.10;;;4.90;;
16075;SDS011;8142;48.242;11.644;2022-10-31T10:32:53;11.90;;;4.70;;
16075;SDS011;8142;48.242;11.644;2022-10-31T10:35:26;12.87;;;5.10;;
16075;SDS011;8142;48.242;11.644;2022-10-31T10:38:10;11.37;;;5.33;;
16075;SDS011;8142;48.242;11.644;2022-10-31T10:40:56;12.50;;;5.60;;
16075;SDS011;8142;48.242;11.644;2022-10-31T10:43:30;11.03;;;5.40;;
16075;SDS011;8142;48.242;11.644;2022-10-31T10:59:20;8.63;;;4.47;;
16075;SDS011;8142;48.242;11.644;2022-10-31T11:01:50;9.57;;;5.03;;
16075;SDS011;8142;48.242;11.644;2022-10-31T11:04:33;11.17;;;4.77;;
16075;SDS011;8142;48.242;11.644;2022-10-31T11:07:04;10.10;;;4.70;;
16075;SDS011;8142;48.242;11.644;2022-10-31T11:09:32;10.33;;;4.57;;
16075;SDS011;8142;48.242;11.644;2022-10-31T11:11:59;9.40;;;4.43;;
16075;SDS011;8142;48.242;11.644;2022-10-31T11:14:31;8.53;;;3.70;;
16075;SDS011;8142;48.242;11.644;2022-10-31T11:17:07;9.73;;;4.20;;
16075;SDS011;8142;48.242;11.644;2022-10-31T11:19:41;12.83;;;4.43;;
16075;SDS011;8142;48.242;11.644;2022-10-31T11:22:08;9.77;;;4.20;;
16075;SDS011;8142;48.242;11.644;2022-10-31T11:24:41;12.23;;;4.07;;
16075;SDS011;8142;48.242;11.644;2022-10-31T11:27:19;10.07;;;4.00;;
16075;SDS011;8142;48.242;11.644;2022-10-31T11:29:48;10.23;;;3.53;;
16075;SDS011;8142;48.242;11.644;2022-10-31T11:32:19;11.13;;;3.93;;
16075;SDS011;8142;48.242;11.644;2022-10-31T11:34:56;7.97;;;3.70;;
16075;SDS011;8142;48.242;11.644;2022-10-31T11:37:27;10.27;;;3.50;;
16075;SDS011;8142;48.242;11.644;2022-10-31T11:39:58;8.30;;;3.43;;
16075;SDS011;8142;48.242;11.644;2022-10-31T11:42:27;7.90;;;3.50;;
16075;SDS011;8142;48.242;11.644;2022-10-31T11:45:00;8.60;;;3.80;;
16075;SDS011;8142;48.242;11.644;2022-10-31T11:47:31;14.27;;;4.00;;
16075;SDS011;8142;48.242;11.644;2022-10-31T11:50:00;8.70;;;3.60;;
16075;SDS011;8142;48.242;11.644;2022-10-31T11:52:34;10.27;;;3.73;;
16075;SDS011;8142;48.242;11.644;2022-10-31T11:57:48;11.03;;;3.73;;
16075;SDS011;8142;48.242;11.644;2022-10-31T12:03:10;10.57;;;3.53;;
16075;SDS011;8142;48.242;11.644;2022-10-31T12:06:03;6.27;;;3.20;;
16075;SDS011;8142;48.242;11.644;2022-10-31T12:08:34;9.47;;;3.50;;
16075;SDS011;8142;48.242;11.644;2022-10-31T12:11:11;8.17;;;3.10;;
16075;SDS011;8142;48.242;11.644;2022-10-31T12:13:46;10.13;;;3.40;;
16075;SDS011;8142;48.242;11.644;2022-10-31T12:16:48;8.60;;;3.57;;
16075;SDS011;8142;48.242;11.644;2022-10-31T12:19:39;7.93;;;3.10;;
16075;SDS011;8142;48.242;11.644;2022-10-31T12:22:19;6.00;;;3.13;;
16075;SDS011;8142;48.242;11.644;2022-10-31T12:47:43;10.80;;;4.53;;
16075;SDS011;8142;48.242;11.644;2022-10-31T12:56:15;9.87;;;4.23;;
16075;SDS011;8142;48.242;11.644;2022-10-31T13:01:28;9.47;;;4.30;;
16075;SDS011;8142;48.242;11.644;2022-10-31T13:03:58;10.23;;;4.27;;
16075;SDS011;8142;48.242;11.644;2022-10-31T13:06:37;10.47;;;4.03;;
16075;SDS011;8142;48.242;11.644;2022-10-31T13:09:10;11.57;;;4.60;;
16075;SDS011;8142;48.242;11.644;2022-10-31T13:16:47;9.33;;;4.87;;
16075;SDS011;8142;48.242;11.644;2022-10-31T13:19:58;11.37;;;4.70;;
16075;SDS011;8142;48.242;11.644;2022-10-31T13:25:33;14.00;;;4.83;;
16075;SDS011;8142;48.242;11.644;2022-10-31T13:30:25;13.83;;;5.27;;
16075;SDS011;8142;48.242;11.644;2022-10-31T13:33:16;9.80;;;4.77;;
16075;SDS011;8142;48.242;11.644;2022-10-31T13:44:23;17.33;;;6.50;;
16075;SDS011;8142;48.242;11.644;2022-10-31T13:46:51;11.03;;;5.47;;
16075;SDS011;8142;48.242;11.644;2022-10-31T13:49:39;10.37;;;5.23;;
16075;SDS011;8142;48.242;11.644;2022-10-31T13:54:39;15.97;;;5.70;;
16075;SDS011;8142;48.242;11.644;2022-10-31T13:57:15;16.03;;;6.90;;
16075;SDS011;8142;48.242;11.644;2022-10-31T13:59:48;17.57;;;7.63;;
16075;SDS011;8142;48.242;11.644;2022-10-31T14:02:22;14.47;;;7.27;;
16075;SDS011;8142;48.242;11.644;2022-10-31T14:04:56;16.07;;;7.57;;
16075;SDS011;8142;48.242;11.644;2022-10-31T14:07:24;13.47;;;7.73;;
16075;SDS011;8142;48.242;11.644;2022-10-31T14:12:37;13.70;;;7.43;;
16075;SDS011;8142;48.242;11.644;2022-10-31T14:17:51;18.97;;;9.00;;
16075;SDS011;8142;48.242;11.644;2022-10-31T14:22:48;18.13;;;7.83;;
16075;SDS011;8142;48.242;11.644;2022-10-31T14:25:24;16.37;;;8.73;;
16075;SDS011;8142;48.242;11.644;2022-10-31T14:27:52;16.80;;;9.30;;
16075;SDS011;8142;48.242;11.644;2022-10-31T14:30:19;17.20;;;8.53;;
16075;SDS011;8142;48.242;11.644;2022-10-31T14:32:52;15.63;;;9.13;;
16075;SDS011;8142;48.242;11.644;2022-10-31T14:35:23;14.60;;;8.23;;
16075;SDS011;8142;48.242;11.644;2022-10-31T14:38:10;15.03;;;9.03;;
16075;SDS011;8142;48.242;11.644;2022-10-31T14:43:49;18.03;;;8.77;;
16075;SDS011;8142;48.242;11.644;2022-10-31T14:51:50;16.37;;;8.53;;
16075;SDS011;8142;48.242;11.644;2022-10-31T14:54:51;19.77;;;8.50;;
16075;SDS011;8142;48.242;11.644;2022-10-31T14:57:19;18.27;;;8.80;;
16075;SDS011;8142;48.242;11.644;2022-10-31T14:59:50;12.83;;;7.80;;
16075;SDS011;8142;48.242;11.644;2022-10-31T15:02:25;16.77;;;8.87;;
16075;SDS011;8142;48.242;11.644;2022-10-31T15:05:14;15.17;;;8.57;;
16075;SDS011;8142;48.242;11.644;2022-10-31T15:08:01;12.97;;;8.43;;
16075;SDS011;8142;48.242;11.644;2022-10-31T15:10:28;18.17;;;8.83;;
16075;SDS011;8142;48.242;11.644;2022-10-31T15:13:10;15.00;;;9.00;;
16075;SDS011;8142;48.242;11.644;2022-10-31T15:15:42;17.23;;;9.23;;
16075;SDS011;8142;48.242;11.644;2022-10-31T15:18:13;15.83;;;8.70;;
16075;SDS011;8142;48.242;11.644;2022-10-31T15:20:43;17.00;;;8.57;;
16075;SDS011;8142;48.242;11.644;2022-10-31T15:23:14;15.10;;;8.50;;
16075;SDS011;8142;48.242;11.644;2022-10-31T15:25:46;17.30;;;8.93;;
16075;SDS011;8142;48.242;11.644;2022-10-31T15:28:12;15.17;;;8.63;;
16075;SDS011;8142;48.242;11.644;2022-10-31T15:30:50;15.00;;;8.80;;
16075;SDS011;8142;48.242;11.644;2022-10-31T15:33:22;13.77;;;8.60;;
16075;SDS011;8142;48.242;11.644;2022-10-31T15:35:59;16.67;;;9.13;;
16075;SDS011;8142;48.242;11.644;2022-10-31T15:38:26;20.00;;;9.63;;
16075;SDS011;8142;48.242;11.644;2022-10-31T15:40:55;14.03;;;8.90;;
16075;SDS011;8142;48.242;11.644;2022-10-31T15:43:27;15.17;;;8.80;;
16075;SDS011;8142;48.242;11.644;2022-10-31T15:45:59;16.23;;;9.10;;
16075;SDS011;8142;48.242;11.644;2022-10-31T15:48:26;14.87;;;8.90;;
16075;SDS011;8142;48.242;11.644;2022-10-31T15:50:54;15.33;;;9.23;;
16075;SDS011;8142;48.242;11.644;2022-10-31T15:53:55;17.70;;;9.90;;
16075;SDS011;8142;48.242;11.644;2022-10-31T15:56:35;15.33;;;9.17;;
16075;SDS011;8142;48.242;11.644;2022-10-31T15:59:01;17.47;;;8.90;;
16075;SDS011;8142;48.242;11.644;2022-10-31T16:01:31;14.63;;;9.00;;
16075;SDS011;8142;48.242;11.644;2022-10-31T16:04:03;13.10;;;8.20;;
16075;SDS011;8142;48.242;11.644;2022-10-31T16:06:39;12.80;;;7.93;;
16075;SDS011;8142;48.242;11.644;2022-10-31T16:09:18;14.17;;;7.90;;
16075;SDS011;8142;48.242;11.644;2022-10-31T16:11:47;12.10;;;7.73;;
16075;SDS011;8142;48.242;11.644;2022-10-31T16:14:17;20.30;;;8.60;;
16075;SDS011;8142;48.242;11.644;2022-10-31T16:16:51;16.13;;;8.77;;
16075;SDS011;8142;48.242;11.644;2022-10-31T16:19:20;13.73;;;8.60;;
16075;SDS011;8142;48.242;11.644;2022-10-31T16:21:52;13.87;;;8.60;;
16075;SDS011;8142;48.242;11.644;2022-10-31T16:24:22;13.27;;;9.47;;
16075;SDS011;8142;48.242;11.644;2022-10-31T16:26:57;15.60;;;9.83;;
16075;SDS011;8142;48.242;11.644;2022-10-31T16:29:45;64.53;;;33.73;;
16075;SDS011;8142;48.242;11.644;2022-10-31T16:35:46;60.50;;;33.83;;
16075;SDS011;8142;48.242;11.644;2022-10-31T16:37:52;28.77;;;16.93;;
16075;SDS011;8142;48.242;11.644;2022-10-31T16:40:19;32.23;;;18.20;;
16075;SDS011;8142;48.242;11.644;2022-10-31T16:42:46;40.10;;;22.27;;
16075;SDS011;8142;48.242;11.644;2022-10-31T16:45:24;41.13;;;24.23;;
16075;SDS011;8142;48.242;11.644;2022-10-31T16:47:52;40.10;;;22.30;;
16075;SDS011;8142;48.242;11.644;2022-10-31T16:50:22;29.97;;;17.13;;
16075;SDS011;8142;48.242;11.644;2022-10-31T16:52:49;20.93;;;12.50;;
16075;SDS011;8142;48.242;11.644;2022-10-31T16:55:17;21.10;;;12.10;;
16075;SDS011;8142;48.242;11.644;2022-10-31T16:57:54;19.80;;;10.47;;
16075;SDS011;8142;48.242;11.644;2022-10-31T17:00:22;16.93;;;10.93;;
16075;SDS011;8142;48.242;11.644;2022-10-31T17:02:50;22.40;;;11.20;;
16075;SDS011;8142;48.242;11.644;2022-10-31T17:05:18;22.33;;;10.83;;
16075;SDS011;8142;48.242;11.644;2022-10-31T17:07:46;17.50;;;10.87;;
16075;SDS011;8142;48.242;11.644;2022-10-31T17:10:13;16.23;;;10.00;;
16075;SDS011;8142;48.242;11.644;2022-10-31T17:12:44;22.10;;;11.63;;
16075;SDS011;8142;48.242;11.644;2022-10-31T17:15:17;22.37;;;11.43;;
16075;SDS011;8142;48.242;11.644;2022-10-31T17:17:48;23.50;;;11.00;;
16075;SDS011;8142;48.242;11.644;2022-10-31T17:20:18;19.80;;;11.37;;
16075;SDS011;8142;48.242;11.644;2022-10-31T17:22:51;16.53;;;10.30;;
16075;SDS011;8142;48.242;11.644;2022-10-31T17:25:18;21.57;;;10.53;;
16075;SDS011;8142;48.242;11.644;2022-10-31T17:27:47;17.63;;;10.73;;
16075;SDS011;8142;48.242;11.644;2022-10-31T17:30:14;17.20;;;10.70;;